createdAt,value
2023-05-08T00:01:33.769Z,100921.60
2023-05-08T00:04:00.930Z,100922.70
2023-05-08T00:06:28.240Z,100920.33
2023-05-08T00:08:55.532Z,100921.52
2023-05-08T00:11:22.961Z,100918.09
2023-05-08T00:13:50.161Z,100922.42
2023-05-08T00:16:17.401Z,100930.30
2023-05-08T00:18:44.603Z,100930.53
2023-05-08T00:21:11.863Z,100927.26
2023-05-08T00:23:38.905Z,100934.05
2023-05-08T00:26:06.497Z,100936.58
2023-05-08T00:28:33.724Z,100935.95
2023-05-08T00:31:01.821Z,100934.89
2023-05-08T00:33:29.050Z,100936.95
2023-05-08T00:36:02.780Z,100936.23
2023-05-08T00:38:31.123Z,100933.61
2023-05-08T00:40:58.317Z,100933.45
2023-05-08T00:43:27.784Z,100928.73
2023-05-08T00:45:55.784Z,100931.20
2023-05-08T00:48:23.409Z,100930.38
2023-05-08T00:50:51.583Z,100932.42
2023-05-08T00:53:21.924Z,100932.19
2023-05-08T00:55:50.771Z,100929.81
2023-05-08T00:58:20.305Z,100932.39
2023-05-08T01:00:47.258Z,100934.55
2023-05-08T01:03:14.780Z,100935.09
2023-05-08T01:05:43.100Z,100943.00
2023-05-08T01:08:10.236Z,100945.42
2023-05-08T01:10:53.693Z,100947.14
2023-05-08T01:13:58.608Z,100948.58
2023-05-08T01:16:45.415Z,100950.83
2023-05-08T01:19:58.479Z,100951.83
2023-05-08T01:23:07.271Z,100955.97
2023-05-08T01:25:52.955Z,100955.23
2023-05-08T01:28:45.606Z,100963.75
2023-05-08T01:31:15.746Z,100961.32
2023-05-08T01:34:05.962Z,100959.94
2023-05-08T01:37:02.835Z,100962.61
2023-05-08T01:39:43.635Z,100960.59
2023-05-08T01:42:17.983Z,100961.55
2023-05-08T01:44:47.151Z,100965.05
2023-05-08T01:47:14.405Z,100961.64
2023-05-08T01:49:47.678Z,100963.23
2023-05-08T01:52:18.368Z,100960.60
2023-05-08T01:54:56.028Z,100960.45
2023-05-08T01:57:24.097Z,100961.02
2023-05-08T01:59:51.537Z,100958.93
2023-05-08T02:02:18.635Z,100961.63
2023-05-08T02:04:47.487Z,100959.76
2023-05-08T02:07:15.047Z,100959.59
2023-05-08T02:09:42.898Z,100958.73
2023-05-08T02:12:10.173Z,100965.22
2023-05-08T02:14:37.491Z,100961.67
2023-05-08T02:17:05.877Z,100963.52
2023-05-08T02:19:33.581Z,100970.68
2023-05-08T02:22:00.736Z,100971.70
2023-05-08T02:24:27.770Z,100971.33
2023-05-08T02:26:55.365Z,100972.71
2023-05-08T02:29:22.504Z,100971.66
2023-05-08T02:31:50.141Z,100971.48
2023-05-08T02:34:17.307Z,100974.21
2023-05-08T02:36:44.431Z,100978.60
2023-05-08T02:39:13.629Z,100976.36
2023-05-08T02:41:40.679Z,100974.98
2023-05-08T02:44:08.033Z,100978.33
2023-05-08T02:46:41.118Z,100980.21
2023-05-08T02:49:12.890Z,100980.92
2023-05-08T02:51:43.106Z,100983.61
2023-05-08T02:54:17.745Z,100988.48
2023-05-08T02:56:55.440Z,100991.59
2023-05-08T02:59:36.951Z,100990.00
2023-05-08T03:02:25.761Z,100993.08
2023-05-08T03:04:55.198Z,100993.14
2023-05-08T03:07:23.783Z,100995.08
2023-05-08T03:09:55.201Z,100995.24
2023-05-08T03:12:23.961Z,101000.52
2023-05-08T03:15:06.410Z,101003.95
2023-05-08T03:17:35.001Z,101006.54
2023-05-08T03:20:05.129Z,101009.16
2023-05-08T03:22:32.579Z,101010.40
2023-05-08T03:25:00.629Z,101015.55
2023-05-08T03:27:28.599Z,101015.70
2023-05-08T03:29:56.383Z,101018.05
2023-05-08T03:32:27.577Z,101024.98
2023-05-08T03:34:55.378Z,101021.04
2023-05-08T03:37:22.481Z,101019.58
2023-05-08T03:39:51.615Z,101020.15
2023-05-08T03:42:21.332Z,101018.87
2023-05-08T03:44:52.830Z,101018.41
2023-05-08T03:47:23.755Z,101017.17
2023-05-08T03:49:51.095Z,101020.02
2023-05-08T03:52:18.461Z,101016.14
2023-05-08T03:54:46.298Z,101017.32
2023-05-08T03:57:13.853Z,101022.45
2023-05-08T03:59:54.537Z,101027.02
2023-05-08T04:02:40.143Z,101023.95
2023-05-08T04:05:26.411Z,101026.14
2023-05-08T04:11:55.264Z,101027.30
2023-05-08T04:14:25.053Z,101030.41
2023-05-08T04:16:53.050Z,101028.27
2023-05-08T04:19:30.534Z,101036.34
2023-05-08T04:22:05.226Z,101033.81
2023-05-08T04:24:32.442Z,101037.41
2023-05-08T04:26:59.738Z,101043.64
2023-05-08T04:29:27.291Z,101046.18
2023-05-08T04:31:54.609Z,101045.35
2023-05-08T04:34:22.008Z,101046.50
2023-05-08T04:36:49.387Z,101045.95
2023-05-08T04:39:18.467Z,101045.15
2023-05-08T04:41:45.856Z,101047.19
2023-05-08T04:44:13.604Z,101044.38
2023-05-08T04:46:40.830Z,101041.77
2023-05-08T04:49:08.219Z,101039.75
2023-05-08T04:51:36.079Z,101036.02
2023-05-08T04:54:03.958Z,101040.73
2023-05-08T04:56:31.267Z,101042.20
2023-05-08T04:58:58.419Z,101045.85
2023-05-08T05:01:25.946Z,101043.46
2023-05-08T05:03:53.369Z,101045.25
2023-05-08T05:06:20.800Z,101042.67
2023-05-08T05:08:48.100Z,101045.38
2023-05-08T05:11:15.904Z,101047.68
2023-05-08T05:13:42.962Z,101047.42
2023-05-08T05:16:10.335Z,101046.52
2023-05-08T05:18:37.765Z,101044.94
2023-05-08T05:21:04.915Z,101043.31
2023-05-08T05:23:32.173Z,101040.21
2023-05-08T05:26:00.447Z,101030.73
2023-05-08T05:28:28.408Z,101029.30
2023-05-08T05:30:56.072Z,101029.48
2023-05-08T05:33:23.220Z,101033.52
2023-05-08T05:35:51.088Z,101033.55
2023-05-08T05:38:18.659Z,101040.38
2023-05-08T05:40:45.895Z,101040.48
2023-05-08T05:43:13.255Z,101041.67
2023-05-08T05:45:40.504Z,101043.38
2023-05-08T05:48:07.995Z,101035.01
2023-05-08T05:50:35.315Z,101033.05
2023-05-08T05:53:02.465Z,101032.50
2023-05-08T05:55:29.630Z,101031.11
2023-05-08T05:57:56.917Z,101029.55
2023-05-08T06:00:24.335Z,101033.23
2023-05-08T06:02:53.228Z,101033.39
2023-05-08T06:05:21.194Z,101028.73
2023-05-08T06:07:48.368Z,101032.52
2023-05-08T06:10:15.502Z,101032.24
2023-05-08T06:12:42.679Z,101038.32
2023-05-08T06:15:11.375Z,101035.80
2023-05-08T06:17:38.966Z,101034.50
2023-05-08T06:20:07.101Z,101038.91
2023-05-08T06:22:34.598Z,101034.59
2023-05-08T06:25:01.688Z,101039.21
2023-05-08T06:27:28.812Z,101038.99
2023-05-08T06:29:55.892Z,101036.81
2023-05-08T06:32:22.998Z,101038.50
2023-05-08T06:34:50.541Z,101035.91
2023-05-08T06:37:17.720Z,101036.80
2023-05-08T06:39:44.872Z,101033.62
2023-05-08T06:42:12.365Z,101038.05
2023-05-08T06:44:40.958Z,101040.27
2023-05-08T06:47:08.585Z,101045.80
2023-05-08T06:49:38.794Z,101039.15
2023-05-08T06:52:05.945Z,101043.91
2023-05-08T06:54:33.200Z,101043.71
2023-05-08T06:57:00.329Z,101039.23
2023-05-08T06:59:27.500Z,101041.23
2023-05-08T07:01:54.675Z,101044.25
2023-05-08T07:04:22.273Z,101042.80
2023-05-08T07:06:49.668Z,101038.92
2023-05-08T07:09:19.188Z,101041.30
2023-05-08T07:11:46.202Z,101037.21
2023-05-08T07:14:13.555Z,101033.88
2023-05-08T07:16:40.637Z,101034.08
2023-05-08T07:19:07.776Z,101031.12
2023-05-08T07:21:35.179Z,101029.38
2023-05-08T07:24:02.633Z,101030.01
2023-05-08T07:26:29.678Z,101033.02
2023-05-08T07:28:56.717Z,101036.85
2023-05-08T07:31:23.870Z,101032.94
2023-05-08T07:33:51.083Z,101031.23
2023-05-08T07:36:18.363Z,101030.50
2023-05-08T07:38:45.889Z,101025.45
2023-05-08T07:41:13.063Z,101032.67
2023-05-08T07:43:40.291Z,101033.38
2023-05-08T07:46:07.467Z,101032.45
2023-05-08T07:48:34.712Z,101034.98
2023-05-08T07:51:01.793Z,101034.88
2023-05-08T07:53:28.988Z,101026.00
2023-05-08T07:55:56.140Z,101031.83
2023-05-08T07:58:23.909Z,101031.86
2023-05-08T08:00:51.580Z,101033.15
2023-05-08T08:03:19.279Z,101029.13
2023-05-08T08:05:46.710Z,101029.52
2023-05-08T08:08:13.691Z,101034.55
2023-05-08T08:10:40.884Z,101028.38
2023-05-08T08:13:08.213Z,101033.24
2023-05-08T08:15:35.497Z,101027.70
2023-05-08T08:18:02.666Z,101028.31
2023-05-08T08:20:29.934Z,101024.79
2023-05-08T08:22:57.048Z,101024.11
2023-05-08T08:25:24.689Z,101019.35
2023-05-08T08:27:51.935Z,101024.23
2023-05-08T08:30:19.098Z,101025.84
2023-05-08T08:32:46.720Z,101029.04
2023-05-08T08:35:14.528Z,101030.32
2023-05-08T08:37:42.203Z,101034.48
2023-05-08T08:40:09.693Z,101029.70
2023-05-08T08:42:36.737Z,101028.25
2023-05-08T08:45:04.272Z,101028.27
2023-05-08T08:47:37.627Z,101023.30
2023-05-08T08:50:05.646Z,101022.09
2023-05-08T08:52:48.688Z,101023.02
2023-05-08T08:55:17.034Z,101023.02
2023-05-08T08:57:54.277Z,101021.90
2023-05-08T09:00:22.402Z,101018.91
2023-05-08T09:02:49.670Z,101017.63
2023-05-08T09:05:17.135Z,101014.50
2023-05-08T09:07:44.359Z,101011.38
2023-05-08T09:10:15.968Z,101014.88
2023-05-08T09:12:45.319Z,101011.27
2023-05-08T09:15:12.881Z,101010.68
2023-05-08T09:17:40.139Z,101008.67
2023-05-08T09:20:08.696Z,101010.61
2023-05-08T09:22:39.202Z,101012.14
2023-05-08T09:25:07.234Z,100998.98
2023-05-08T09:27:36.737Z,100996.50
2023-05-08T09:30:08.874Z,100999.56
2023-05-08T09:32:40.201Z,100994.13
2023-05-08T09:35:08.316Z,100991.73
2023-05-08T09:37:38.620Z,100993.99
2023-05-08T09:40:15.992Z,100990.92
2023-05-08T09:42:43.360Z,100996.59
2023-05-08T09:45:11.579Z,100994.85
2023-05-08T09:47:39.901Z,100988.99
2023-05-08T09:50:09.051Z,100986.27
2023-05-08T09:52:37.450Z,100984.69
2023-05-08T09:55:11.201Z,100991.40
2023-05-08T09:57:39.714Z,100987.77
2023-05-08T10:00:11.970Z,100983.84
2023-05-08T10:02:43.313Z,100984.73
2023-05-08T10:05:33.550Z,100977.95
2023-05-08T10:08:17.941Z,100983.55
2023-05-08T10:10:45.161Z,100981.52
2023-05-08T10:13:12.239Z,100979.02
2023-05-08T10:15:40.004Z,100975.45
2023-05-08T10:18:07.988Z,100973.64
2023-05-08T10:20:37.429Z,100972.36
2023-05-08T10:23:04.627Z,100973.80
2023-05-08T10:25:33.863Z,100967.89
2023-05-08T10:28:14.002Z,100962.64
2023-05-08T10:30:44.720Z,100961.14
2023-05-08T10:33:11.896Z,100967.52
2023-05-08T10:35:39.023Z,100962.09
2023-05-08T10:38:06.167Z,100961.10
2023-05-08T10:40:33.424Z,100957.55
2023-05-08T10:43:00.569Z,100950.91
2023-05-08T10:45:27.721Z,100962.87
2023-05-08T10:47:59.998Z,100955.84
2023-05-08T10:50:34.976Z,100961.41
2023-05-08T10:53:02.326Z,100967.08
2023-05-08T10:55:33.762Z,100971.33
2023-05-08T10:58:07.378Z,100968.23
2023-05-08T11:00:59.987Z,100966.20
2023-05-08T11:03:32.105Z,100971.98
2023-05-08T11:06:00.853Z,100967.21
2023-05-08T11:08:28.808Z,100969.36
2023-05-08T11:10:59.630Z,100961.23
2023-05-08T11:13:28.566Z,100958.24
2023-05-08T11:15:56.022Z,100960.18
2023-05-08T11:18:26.323Z,100954.48
2023-05-08T11:21:06.469Z,100958.61
2023-05-08T11:23:34.225Z,100952.21
2023-05-08T11:26:14.493Z,100952.09
2023-05-08T11:28:58.477Z,100951.33
2023-05-08T11:31:25.796Z,100944.98
2023-05-08T11:33:52.934Z,100944.92
2023-05-08T11:36:25.256Z,100946.11
2023-05-08T11:39:16.463Z,100951.27
2023-05-08T11:41:43.513Z,100948.25
2023-05-08T11:44:17.183Z,100948.61
2023-05-08T11:46:54.545Z,100948.35
2023-05-08T11:49:29.029Z,100949.06
2023-05-08T11:51:58.619Z,100946.19
2023-05-08T11:54:26.044Z,100942.50
2023-05-08T11:56:54.929Z,100939.67
2023-05-08T11:59:22.410Z,100942.23
2023-05-08T12:02:07.029Z,100940.64
2023-05-08T12:04:48.899Z,100937.77
2023-05-08T12:07:16.753Z,100937.69
2023-05-08T12:09:43.797Z,100936.45
2023-05-08T12:12:10.923Z,100936.20
2023-05-08T12:14:38.084Z,100933.95
2023-05-08T12:17:05.193Z,100930.81
2023-05-08T12:19:32.402Z,100932.95
2023-05-08T12:21:59.659Z,100925.63
2023-05-08T12:24:27.083Z,100920.69
2023-05-08T12:26:56.096Z,100915.73
2023-05-08T12:29:26.695Z,100914.41
2023-05-08T12:31:53.847Z,100910.49
2023-05-08T12:34:21.134Z,100903.34
2023-05-08T12:36:48.776Z,100906.64
2023-05-08T12:39:17.541Z,100903.62
2023-05-08T12:41:51.872Z,100903.77
2023-05-08T12:44:25.391Z,100901.31
2023-05-08T12:46:53.799Z,100898.44
2023-05-08T12:49:30.979Z,100895.14
2023-05-08T12:52:05.303Z,100896.21
2023-05-08T12:54:48.176Z,100893.54
2023-05-08T12:57:19.434Z,100890.26
2023-05-08T12:59:46.763Z,100895.55
2023-05-08T13:02:18.074Z,100887.27
2023-05-08T13:04:45.748Z,100889.29
2023-05-08T13:07:13.081Z,100893.05
2023-05-08T13:09:40.617Z,100897.90
2023-05-08T13:12:07.925Z,100901.59
2023-05-08T13:14:34.990Z,100902.56
2023-05-08T13:17:02.155Z,100903.52
2023-05-08T13:19:29.331Z,100899.76
2023-05-08T13:21:56.457Z,100903.55
2023-05-08T13:24:23.803Z,100906.88
2023-05-08T13:26:50.950Z,100900.54
2023-05-08T13:29:18.130Z,100896.42
2023-05-08T13:31:45.283Z,100902.23
2023-05-08T13:34:12.295Z,100901.85
2023-05-08T13:36:39.511Z,100901.71
2023-05-08T13:39:06.695Z,100902.16
2023-05-08T13:41:33.840Z,100901.30
2023-05-08T13:44:01.016Z,100902.63
2023-05-08T13:46:28.061Z,100903.94
2023-05-08T13:48:55.286Z,100903.52
2023-05-08T13:51:22.332Z,100904.14
2023-05-08T13:53:49.385Z,100898.59
2023-05-08T13:56:16.507Z,100896.11
2023-05-08T13:58:43.635Z,100897.67
2023-05-08T14:01:25.119Z,100902.23
2023-05-08T14:03:53.854Z,100901.09
2023-05-08T14:06:21.248Z,100906.48
2023-05-08T14:08:50.991Z,100907.41
2023-05-08T14:11:19.326Z,100900.85
2023-05-08T14:13:46.584Z,100904.59
2023-05-08T14:16:15.304Z,100905.41
2023-05-08T14:18:42.501Z,100901.42
2023-05-08T14:21:09.503Z,100903.60
2023-05-08T14:23:37.919Z,100906.42
2023-05-08T14:26:05.688Z,100903.51
2023-05-08T14:28:33.494Z,100906.83
2023-05-08T14:31:00.666Z,100905.78
2023-05-08T14:33:27.856Z,100905.33
2023-05-08T14:35:55.009Z,100907.56
2023-05-08T14:38:22.043Z,100908.70
2023-05-08T14:40:54.530Z,100908.70
2023-05-08T14:43:22.139Z,100910.88
2023-05-08T14:45:49.533Z,100912.95
2023-05-08T14:48:16.693Z,100917.45
2023-05-08T14:50:43.945Z,100919.36
2023-05-08T14:53:11.401Z,100914.89
2023-05-08T14:55:38.815Z,100915.39
2023-05-08T14:58:06.013Z,100918.00
2023-05-08T15:00:33.157Z,100916.55
2023-05-08T15:03:00.480Z,100920.85
2023-05-08T15:05:27.769Z,100918.02
2023-05-08T15:07:55.069Z,100919.59
2023-05-08T15:10:22.276Z,100912.97
2023-05-08T15:12:49.567Z,100913.56
2023-05-08T15:15:16.996Z,100911.28
2023-05-08T15:17:44.262Z,100919.38
2023-05-08T15:20:11.689Z,100918.27
2023-05-08T15:22:38.920Z,100922.48
2023-05-08T15:25:06.813Z,100922.77
2023-05-08T15:27:33.964Z,100925.50
2023-05-08T15:30:01.060Z,100923.70
2023-05-08T15:32:28.264Z,100929.41
2023-05-08T15:34:56.325Z,100927.61
2023-05-08T15:37:23.518Z,100925.27
2023-05-08T15:39:50.660Z,100924.44
2023-05-08T15:42:17.702Z,100926.70
2023-05-08T15:47:14.975Z,100928.65
2023-05-08T15:49:42.098Z,100931.53
2023-05-08T15:52:09.253Z,100933.70
2023-05-08T15:54:36.392Z,100939.56
2023-05-08T15:57:03.547Z,100938.79
2023-05-08T15:59:31.052Z,100941.19
2023-05-08T16:01:58.166Z,100942.49
2023-05-08T16:04:25.194Z,100935.67
2023-05-08T16:06:52.266Z,100935.70
2023-05-08T16:09:19.300Z,100935.09
2023-05-08T16:11:48.023Z,100927.33
2023-05-08T16:14:16.979Z,100939.11
2023-05-08T16:16:44.227Z,100949.58
2023-05-08T16:19:11.384Z,100953.73
2023-05-08T16:21:38.526Z,100958.73
2023-05-08T16:24:06.800Z,100962.91
2023-05-08T16:26:33.852Z,100964.39
2023-05-08T16:29:01.739Z,100963.87
2023-05-08T16:31:29.411Z,100970.37
2023-05-08T16:33:56.501Z,100972.22
2023-05-08T16:36:23.694Z,100972.75
2023-05-08T16:38:51.088Z,100968.23
2023-05-08T16:41:18.231Z,100976.02
2023-05-08T16:43:45.364Z,100981.34
2023-05-08T16:46:12.719Z,100984.55
2023-05-08T16:48:39.844Z,100981.63
2023-05-08T16:51:08.225Z,100986.91
2023-05-08T16:53:35.952Z,100990.88
2023-05-08T16:56:03.097Z,100996.02
2023-05-08T16:58:30.281Z,100996.18
2023-05-08T17:00:57.402Z,100997.27
2023-05-08T17:03:24.742Z,100994.98
2023-05-08T17:05:52.024Z,101002.25
2023-05-08T17:08:19.189Z,101006.42
2023-05-08T17:10:46.342Z,101011.46
2023-05-08T17:13:13.461Z,101008.09
2023-05-08T17:15:40.650Z,101008.72
2023-05-08T17:18:07.904Z,101010.38
2023-05-08T17:20:42.679Z,101013.76
2023-05-08T17:23:09.870Z,101018.79
2023-05-08T17:25:37.071Z,101022.86
2023-05-08T17:28:05.134Z,101026.23
2023-05-08T17:30:32.143Z,101026.96
2023-05-08T17:32:59.360Z,101031.04
2023-05-08T17:35:26.707Z,101031.41
2023-05-08T17:37:53.934Z,101035.88
2023-05-08T17:40:22.171Z,101039.58
2023-05-08T17:42:49.335Z,101041.97
2023-05-08T17:45:16.484Z,101041.77
2023-05-08T17:47:43.560Z,101042.57
2023-05-08T17:50:12.193Z,101045.89
2023-05-08T17:52:39.457Z,101047.61
2023-05-08T17:55:07.232Z,101050.88
2023-05-08T17:57:34.302Z,101046.55
2023-05-08T18:00:01.319Z,101053.65
2023-05-08T18:02:28.344Z,101057.02
2023-05-08T18:04:55.605Z,101061.05
2023-05-08T18:07:22.770Z,101063.73
2023-05-08T18:09:49.864Z,101066.35
2023-05-08T18:12:17.086Z,101065.16
2023-05-08T18:14:45.208Z,101066.95
2023-05-08T18:17:14.969Z,101065.27
2023-05-08T18:19:42.211Z,101066.33
2023-05-08T18:22:09.248Z,101066.74
2023-05-08T18:24:36.297Z,101068.45
2023-05-08T18:27:03.557Z,101069.88
2023-05-08T18:29:31.047Z,101072.25
2023-05-08T18:31:58.159Z,101073.24
2023-05-08T18:34:26.309Z,101066.29
2023-05-08T18:36:54.956Z,101068.70
2023-05-08T18:39:23.497Z,101065.38
2023-05-08T18:41:50.728Z,101065.99
2023-05-08T18:44:18.067Z,101065.55
2023-05-08T18:46:45.326Z,101066.61
2023-05-08T18:49:12.514Z,101068.02
2023-05-08T18:51:39.497Z,101066.99
2023-05-08T18:54:06.602Z,101064.49
2023-05-08T18:56:34.569Z,101060.54
2023-05-08T18:59:01.749Z,101059.87
2023-05-08T19:01:29.186Z,101055.08
2023-05-08T19:03:56.893Z,101055.40
2023-05-08T19:06:23.991Z,101057.43
2023-05-08T19:08:52.277Z,101058.70
2023-05-08T19:11:19.517Z,101059.05
2023-05-08T19:13:46.980Z,101056.15
2023-05-08T19:16:14.130Z,101057.39
2023-05-08T19:18:41.680Z,101059.20
2023-05-08T19:21:08.741Z,101057.52
2023-05-08T19:23:36.094Z,101057.80
2023-05-08T19:26:03.364Z,101057.77
2023-05-08T19:28:30.404Z,101058.84
2023-05-08T19:30:57.442Z,101060.40
2023-05-08T19:33:24.595Z,101067.38
2023-05-08T19:35:51.736Z,101067.43
2023-05-08T19:38:19.332Z,101066.39
2023-05-08T19:40:56.458Z,101069.86
2023-05-08T19:43:25.951Z,101068.70
2023-05-08T19:45:53.206Z,101068.46
2023-05-08T19:48:20.579Z,101071.59
2023-05-08T19:50:47.849Z,101069.54
2023-05-08T19:53:15.050Z,101067.20
2023-05-08T19:55:42.147Z,101063.80
2023-05-08T19:58:09.185Z,101066.23
2023-05-08T20:00:36.340Z,101066.80
2023-05-08T20:03:03.413Z,101065.23
2023-05-08T20:05:30.971Z,101065.93
2023-05-08T20:07:58.101Z,101071.78
2023-05-08T20:10:25.287Z,101075.67
2023-05-08T20:12:52.500Z,101073.49
2023-05-08T20:15:19.849Z,101072.99
2023-05-08T20:17:46.886Z,101072.77
2023-05-08T20:20:14.281Z,101072.88
2023-05-08T20:22:41.760Z,101074.59
2023-05-08T20:25:09.074Z,101077.67
2023-05-08T20:27:36.223Z,101080.67
2023-05-08T20:30:04.785Z,101079.98
2023-05-08T20:32:31.947Z,101078.48
2023-05-08T20:34:59.202Z,101081.46
2023-05-08T20:37:26.453Z,101082.92
2023-05-08T20:39:53.606Z,101080.14
2023-05-08T20:42:21.074Z,101080.71
2023-05-08T20:44:48.417Z,101079.75
2023-05-08T20:47:15.569Z,101080.95
2023-05-08T20:49:42.694Z,101076.67
2023-05-08T20:52:09.881Z,101081.19
2023-05-08T20:54:37.000Z,101077.75
2023-05-08T20:57:04.266Z,101075.71
2023-05-08T20:59:31.417Z,101072.16
2023-05-08T21:01:58.448Z,101070.91
2023-05-08T21:04:25.543Z,101072.51
2023-05-08T21:06:53.107Z,101072.09
2023-05-08T21:09:20.238Z,101073.53
2023-05-08T21:11:47.599Z,101069.89
2023-05-08T21:14:14.672Z,101068.99
2023-05-08T21:16:41.846Z,101070.44
2023-05-08T21:19:10.180Z,101065.20
2023-05-08T21:21:37.425Z,101066.65
2023-05-08T21:24:04.607Z,101068.89
2023-05-08T21:26:32.049Z,101071.23
2023-05-08T21:29:00.429Z,101068.98
2023-05-08T21:31:29.070Z,101072.19
2023-05-08T21:33:56.525Z,101071.95
2023-05-08T21:36:23.837Z,101070.91
2023-05-08T21:38:52.335Z,101072.48
2023-05-08T21:41:19.546Z,101070.48
2023-05-08T21:43:46.693Z,101073.35
2023-05-08T21:46:13.778Z,101070.91
2023-05-08T21:48:40.841Z,101069.42
2023-05-08T21:51:08.315Z,101069.91
2023-05-08T21:53:35.497Z,101067.84
2023-05-08T21:56:02.488Z,101071.05
2023-05-08T21:58:29.810Z,101069.77
2023-05-08T22:00:58.516Z,101067.48
2023-05-08T22:03:26.166Z,101067.75
2023-05-08T22:05:53.242Z,101067.14
2023-05-08T22:08:20.393Z,101067.15
2023-05-08T22:10:47.697Z,101068.11
2023-05-08T22:13:15.163Z,101064.45
2023-05-08T22:15:43.024Z,101065.89
2023-05-08T22:18:10.186Z,101060.63
2023-05-08T22:20:38.347Z,101060.51
2023-05-08T22:23:06.022Z,101057.16
2023-05-08T22:25:33.175Z,101055.02
2023-05-08T22:28:00.287Z,101054.27
2023-05-08T22:30:27.474Z,101052.83
2023-05-08T22:32:56.182Z,101051.33
2023-05-08T22:35:24.643Z,101050.05
2023-05-08T22:37:52.569Z,101049.48
2023-05-08T22:40:21.642Z,101055.98
2023-05-08T22:42:51.571Z,101048.09
2023-05-08T22:45:18.873Z,101046.09
2023-05-08T22:47:45.947Z,101043.51
2023-05-08T22:50:13.294Z,101040.21
2023-05-08T22:52:40.365Z,101039.84
2023-05-08T22:55:08.383Z,101041.23
2023-05-08T22:57:35.542Z,101037.38
2023-05-08T23:00:02.693Z,101040.73
2023-05-08T23:02:33.556Z,101038.09
2023-05-08T23:05:01.040Z,101031.85
2023-05-08T23:07:28.844Z,101035.23
2023-05-08T23:09:55.993Z,101036.17
2023-05-08T23:12:23.169Z,101035.88
2023-05-08T23:14:50.191Z,101034.36
2023-05-08T23:17:17.328Z,101036.19
2023-05-08T23:19:45.803Z,101036.83
2023-05-08T23:22:12.893Z,101038.02
2023-05-08T23:24:40.010Z,101038.25
2023-05-08T23:27:07.025Z,101036.34
2023-05-08T23:29:34.039Z,101043.86
2023-05-08T23:32:01.395Z,101040.48
2023-05-08T23:34:28.553Z,101040.28
2023-05-08T23:36:55.903Z,101041.05
2023-05-08T23:39:23.015Z,101040.06
2023-05-08T23:41:50.167Z,101039.52
2023-05-08T23:44:17.785Z,101037.17
2023-05-08T23:46:45.268Z,101039.00
2023-05-08T23:49:12.613Z,101039.98
2023-05-08T23:51:39.681Z,101036.05
2023-05-08T23:54:07.078Z,101037.34
2023-05-08T23:56:34.201Z,101036.88
2023-05-08T23:59:01.552Z,101034.61
